Time;durP1;ratioP1;P1;durP2;ratioP2;P2;SDS_P1;SDS_P2;PMS_P1;PMS_P2;Temp;Humidity;BMP_temperature;BMP_pressure;BME280_temperature;BME280_humidity;BME280_pressure;Samples;Min_cycle;Max_cycle;Signal;HPM_P1;HPM_P2
2021/05/28 00:00:16;;;;;;;7.25;5.15;;;;;;;24.41;39.01;101900.38;5052886;28;20051;-74
2021/05/28 00:02:41;;;;;;;8.00;5.57;;;;;;;24.38;39.08;101893.56;5052952;28;20108;-74
2021/05/28 00:05:08;;;;;;;8.55;5.80;;;;;;;24.30;39.32;101898.22;5052970;28;20044;-74
2021/05/28 00:07:33;;;;;;;6.43;5.28;;;;;;;24.40;38.77;101901.56;5052772;28;20025;-75
2021/05/28 00:09:59;;;;;;;5.68;5.03;;;;;;;24.20;39.25;101898.91;5052530;28;20047;-74
2021/05/28 00:12:25;;;;;;;8.15;5.95;;;;;;;24.25;39.41;101897.75;5052710;28;20021;-75
2021/05/28 00:14:51;;;;;;;9.32;5.15;;;;;;;24.24;39.37;101899.75;5052689;28;20028;-76
2021/05/28 00:17:17;;;;;;;7.05;4.93;;;;;;;24.35;38.98;101894.34;5052757;28;20025;-74
2021/05/28 00:19:43;;;;;;;5.47;4.50;;;;;;;24.30;39.12;101903.81;5034805;28;20078;-73
2021/05/28 00:22:09;;;;;;;5.82;4.25;;;;;;;24.35;38.99;101905.50;5052568;28;20112;-77
2021/05/28 00:24:35;;;;;;;5.20;4.20;;;;;;;24.24;39.10;101899.75;5052598;28;20073;-74
2021/05/28 00:27:00;;;;;;;7.70;4.55;;;;;;;24.29;39.11;101907.78;5052541;28;20029;-74
2021/05/28 00:29:26;;;;;;;4.50;3.60;;;;;;;24.35;38.87;101911.91;5052446;28;20037;-77
2021/05/28 00:31:52;;;;;;;4.90;3.70;;;;;;;24.37;38.81;101905.13;5052552;28;20024;-78
2021/05/28 00:34:17;;;;;;;6.70;3.47;;;;;;;24.37;39.08;101903.13;5052515;28;20479;-73
2021/05/28 00:36:43;;;;;;;5.68;3.13;;;;;;;24.37;38.98;101905.94;5052506;28;20025;-75
2021/05/28 00:39:09;;;;;;;5.35;3.67;;;;;;;24.34;38.87;101898.31;5052437;28;20049;-73
2021/05/28 00:41:34;;;;;;;5.72;3.38;;;;;;;24.40;39.04;101904.34;5052438;28;20090;-74
2021/05/28 00:44:01;;;;;;;4.57;3.03;;;;;;;24.41;38.64;101905.97;5052412;28;20033;-74
2021/05/28 00:46:27;;;;;;;4.53;3.03;;;;;;;24.44;38.55;101899.63;5052288;28;20029;-74
2021/05/28 00:48:54;;;;;;;5.15;3.00;;;;;;;24.34;39.31;101909.50;5052342;28;20344;-74
2021/05/28 00:51:23;;;;;;;7.70;4.05;;;;;;;24.28;38.87;101911.78;5052404;28;20025;-73
2021/05/28 00:53:49;;;;;;;4.90;4.10;;;;;;;24.38;38.96;101906.72;5052337;28;20025;-74
2021/05/28 00:56:16;;;;;;;6.10;3.63;;;;;;;24.37;38.99;101910.72;5052290;28;20408;-75
2021/05/28 00:58:41;;;;;;;5.50;4.32;;;;;;;24.42;38.63;101910.41;5034451;28;20017;-73
2021/05/28 01:01:08;;;;;;;5.40;3.75;;;;;;;24.35;39.00;101911.09;5052253;28;20032;-74
2021/05/28 01:03:35;;;;;;;5.35;4.03;;;;;;;24.42;38.91;101911.19;5052152;28;20050;-73
2021/05/28 01:06:01;;;;;;;6.03;3.78;;;;;;;24.37;38.87;101919.91;5052159;28;20108;-74
2021/05/28 01:08:26;;;;;;;6.43;3.70;;;;;;;24.32;38.95;101915.44;5052090;28;20040;-74
2021/05/28 01:10:52;;;;;;;6.70;3.72;;;;;;;24.29;39.00;101918.97;5052158;28;20479;-75
2021/05/28 01:13:18;;;;;;;8.02;4.25;;;;;;;24.35;39.00;101911.91;5052146;28;20051;-74
2021/05/28 01:15:46;;;;;;;6.43;4.75;;;;;;;24.30;38.95;101915.00;5052106;28;20480;-74
2021/05/28 01:18:12;;;;;;;7.30;3.90;;;;;;;24.27;39.03;101918.56;5052100;28;20021;-74
2021/05/28 01:20:38;;;;;;;8.27;3.90;;;;;;;24.37;38.66;101924.69;5052162;28;20029;-74
2021/05/28 01:23:05;;;;;;;8.32;3.85;;;;;;;24.32;38.73;101918.22;5052051;28;20018;-78
2021/05/28 01:25:31;;;;;;;6.50;3.88;;;;;;;24.37;38.73;101927.47;5052182;28;20084;-74
2021/05/28 01:27:58;;;;;;;6.00;3.72;;;;;;;24.33;39.05;101927.41;5053904;28;20102;-74
2021/05/28 01:30:25;;;;;;;6.82;4.53;;;;;;;24.27;39.04;101921.34;5055601;28;20051;-74
2021/05/28 01:32:51;;;;;;;5.50;3.70;;;;;;;24.30;39.05;101920.56;5055813;28;20032;-74
2021/05/28 01:35:17;;;;;;;9.25;4.10;;;;;;;24.33;38.76;101919.88;5055736;28;20025;-74
2021/05/28 01:37:44;;;;;;;6.90;3.88;;;;;;;24.30;38.88;101931.75;5055676;28;20499;-74
2021/05/28 01:40:11;;;;;;;5.07;3.83;;;;;;;24.27;38.79;101924.13;5055619;28;20040;-74
2021/05/28 01:42:37;;;;;;;8.80;4.20;;;;;;;24.22;38.92;101921.66;5055612;28;20032;-74
2021/05/28 01:45:05;;;;;;;6.57;3.92;;;;;;;24.27;39.31;101924.13;5055536;28;20365;-73
2021/05/28 01:47:31;;;;;;;7.75;4.03;;;;;;;24.28;38.76;101922.94;5055380;28;20033;-74
2021/05/28 01:49:57;;;;;;;6.78;3.78;;;;;;;24.26;39.18;101924.53;5055478;28;20044;-74
2021/05/28 01:52:24;;;;;;;8.52;3.72;;;;;;;24.27;38.79;101926.94;5055467;28;20070;-74
2021/05/28 01:54:50;;;;;;;5.88;4.07;;;;;;;24.18;39.27;101923.63;5055421;28;20112;-73
2021/05/28 01:57:16;;;;;;;5.95;3.60;;;;;;;24.31;38.77;101921.38;5055251;28;20100;-74
2021/05/28 01:59:44;;;;;;;7.18;4.10;;;;;;;24.32;38.89;101929.41;5055409;28;20159;-74
2021/05/28 02:02:10;;;;;;;6.55;3.72;;;;;;;24.33;38.97;101924.63;5055231;28;20506;-76
2021/05/28 02:04:35;;;;;;;6.03;4.10;;;;;;;24.35;38.98;101930.66;5037148;28;20029;-74
2021/05/28 02:07:02;;;;;;;5.30;4.28;;;;;;;24.28;38.88;101928.53;5055134;28;20024;-74
2021/05/28 02:09:28;;;;;;;6.53;4.05;;;;;;;24.31;38.99;101926.97;5037374;28;20025;-74
2021/05/28 02:11:54;;;;;;;6.25;4.50;;;;;;;24.28;39.03;101927.72;5055107;28;20475;-73
2021/05/28 02:14:19;;;;;;;7.60;4.40;;;;;;;24.34;38.94;101924.25;5055096;28;20029;-74
2021/05/28 02:16:45;;;;;;;7.10;3.92;;;;;;;24.28;39.13;101922.94;5054986;28;20025;-75
2021/05/28 02:19:10;;;;;;;5.22;3.78;;;;;;;24.34;39.04;101927.06;5054817;28;20021;-74
2021/05/28 02:21:37;;;;;;;5.88;4.00;;;;;;;24.36;38.97;101918.28;5054928;28;20021;-74
2021/05/28 02:24:03;;;;;;;5.95;3.88;;;;;;;24.33;39.31;101913.44;5054847;28;20025;-76
2021/05/28 02:26:30;;;;;;;8.18;4.28;;;;;;;24.41;38.88;101919.94;5054732;28;20064;-74
2021/05/28 02:28:55;;;;;;;6.00;4.40;;;;;;;24.31;38.80;101926.97;5054606;28;20040;-74
2021/05/28 02:31:21;;;;;;;6.43;4.60;;;;;;;24.34;39.03;101918.69;5054701;28;20357;-76
2021/05/28 02:33:46;;;;;;;7.65;4.93;;;;;;;24.29;39.13;101918.97;5054441;28;20044;-74
2021/05/28 02:36:12;;;;;;;9.75;4.80;;;;;;;24.26;39.16;101916.13;5053452;28;20108;-77
2021/05/28 02:38:38;;;;;;;7.22;5.00;;;;;;;24.24;39.18;101919.28;5053410;28;20060;-74
2021/05/28 02:41:04;;;;;;;8.18;5.07;;;;;;;24.23;39.28;101920.47;5054531;28;20052;-74
2021/05/28 02:43:29;;;;;;;6.28;5.03;;;;;;;24.28;38.89;101922.16;5054466;28;20060;-75
2021/05/28 02:45:56;;;;;;;9.70;4.80;;;;;;;24.26;39.13;101916.94;5054284;28;20025;-74
2021/05/28 02:48:22;;;;;;;5.15;4.28;;;;;;;24.28;38.85;101922.16;5054406;28;20038;-74
2021/05/28 02:50:47;;;;;;;7.28;5.30;;;;;;;24.24;38.97;101924.88;5036377;28;20111;-74
2021/05/28 02:53:16;;;;;;;6.72;4.30;;;;;;;24.32;39.00;101918.22;5036466;28;20029;-74
2021/05/28 02:55:42;;;;;;;4.68;4.13;;;;;;;24.26;39.39;101918.94;5054194;28;20113;-74
2021/05/28 02:58:08;;;;;;;5.32;4.32;;;;;;;24.26;39.18;101918.94;5054237;28;20108;-76
2021/05/28 03:00:33;;;;;;;6.72;4.30;;;;;;;24.24;39.09;101926.88;5054161;28;20021;-74
2021/05/28 03:02:59;;;;;;;7.30;4.25;;;;;;;24.25;39.18;101920.91;5054023;28;20055;-75
2021/05/28 03:05:24;;;;;;;5.15;3.85;;;;;;;24.14;39.52;101919.97;5036226;28;20024;-74
2021/05/28 03:07:50;;;;;;;7.13;4.07;;;;;;;24.25;39.11;101920.91;5053990;28;20036;-74
2021/05/28 03:10:16;;;;;;;6.57;4.68;;;;;;;24.29;38.88;101924.56;5053884;28;20108;-75
2021/05/28 03:12:42;;;;;;;7.80;4.43;;;;;;;24.22;39.08;101930.03;5036108;28;20119;-74
2021/05/28 03:15:08;;;;;;;5.45;4.07;;;;;;;24.23;39.23;101926.06;5053813;28;20052;-74
2021/05/28 03:17:34;;;;;;;6.95;4.35;;;;;;;24.22;39.42;101918.06;5035947;28;20025;-74
2021/05/28 03:20:03;;;;;;;5.72;4.15;;;;;;;24.35;38.97;101920.28;5053680;28;20102;-74
2021/05/28 03:22:33;;;;;;;7.07;4.47;;;;;;;24.33;39.03;101922.66;5053768;28;20375;-74
2021/05/28 03:25:11;;;;;;;7.47;5.38;;;;;;;24.28;39.57;101927.72;5053962;28;20022;-74
2021/05/28 03:27:37;;;;;;;6.82;4.38;;;;;;;24.29;39.00;101918.97;5053448;28;20116;-74
2021/05/28 03:30:05;;;;;;;5.43;4.53;;;;;;;24.34;39.04;101918.69;5053625;28;20410;-74
2021/05/28 03:32:31;;;;;;;7.82;5.00;;;;;;;24.40;38.89;101923.91;5053552;28;20360;-74
2021/05/28 03:34:57;;;;;;;7.32;5.05;;;;;;;24.38;39.03;101915.91;5035600;28;20025;-74
2021/05/28 03:37:24;;;;;;;7.18;5.10;;;;;;;24.31;39.02;101916.59;5035602;28;20454;-78
2021/05/28 03:39:50;;;;;;;7.63;5.05;;;;;;;24.32;39.10;101915.44;5053477;28;20107;-74
2021/05/28 03:42:17;;;;;;;9.43;5.68;;;;;;;24.25;38.86;101920.91;5035520;28;20120;-74
2021/05/28 03:44:43;;;;;;;7.55;5.32;;;;;;;24.36;39.17;101921.09;5053205;28;20021;-74
2021/05/28 03:47:08;;;;;;;8.13;5.97;;;;;;;24.32;39.14;101922.97;5053183;28;20090;-76
2021/05/28 03:49:34;;;;;;;7.05;5.30;;;;;;;24.35;39.06;101916.69;5052937;28;20419;-74
2021/05/28 03:52:00;;;;;;;8.57;5.72;;;;;;;24.21;39.53;101919.25;5053163;28;20021;-74
2021/05/28 03:54:25;;;;;;;6.68;5.15;;;;;;;24.38;39.01;101926.28;5053094;28;20379;-75
2021/05/28 03:56:51;;;;;;;10.45;6.43;;;;;;;24.29;39.41;101918.16;5053048;28;20483;-74
2021/05/28 03:59:17;;;;;;;6.45;5.07;;;;;;;24.37;39.13;101924.69;5053095;28;20426;-75
2021/05/28 04:01:42;;;;;;;9.77;6.00;;;;;;;24.37;38.93;101924.69;5053038;28;20052;-74
2021/05/28 04:04:08;;;;;;;8.48;5.07;;;;;;;24.34;39.23;101929.84;5052989;28;20439;-74
2021/05/28 04:06:34;;;;;;;8.13;4.53;;;;;;;24.33;39.38;101927.41;5052885;28;20032;-76
2021/05/28 04:08:59;;;;;;;7.00;4.82;;;;;;;24.35;39.06;101928.66;5052903;28;20514;-74
2021/05/28 04:11:25;;;;;;;6.40;4.22;;;;;;;24.25;39.45;101932.06;5052788;28;20029;-75
2021/05/28 04:13:51;;;;;;;8.40;4.45;;;;;;;24.25;39.16;101931.25;5052754;28;20100;-74
2021/05/28 04:16:17;;;;;;;10.05;4.10;;;;;;;24.13;39.75;101926.72;5052778;28;20432;-74
2021/05/28 04:18:43;;;;;;;7.93;4.68;;;;;;;24.21;39.43;101927.63;5050485;28;20104;-76
2021/05/28 04:21:09;;;;;;;6.90;3.33;;;;;;;24.27;39.50;101929.72;5072704;28;20020;-74
2021/05/28 04:23:34;;;;;;;7.85;3.90;;;;;;;24.25;39.45;101932.06;5072683;28;20490;-74
2021/05/28 04:26:00;;;;;;;6.57;3.70;;;;;;;24.11;39.70;101926.31;5072460;28;20133;-73
2021/05/28 04:28:28;;;;;;;8.60;3.67;;;;;;;24.14;39.41;101930.31;5072446;28;20097;-73
2021/05/28 04:30:54;;;;;;;8.25;3.50;;;;;;;24.20;39.37;101932.41;5072556;28;20037;-74
2021/05/28 04:33:20;;;;;;;5.13;3.22;;;;;;;24.04;39.87;101935.38;5054158;28;20020;-75
2021/05/28 04:35:46;;;;;;;5.05;3.58;;;;;;;24.15;39.51;101935.53;5072789;28;20108;-74
2021/05/28 04:38:11;;;;;;;4.70;3.08;;;;;;;24.15;39.70;101932.72;5054541;28;20463;-74
2021/05/28 04:40:37;;;;;;;5.65;3.03;;;;;;;24.25;39.47;101940.44;5072873;28;20036;-74
2021/05/28 04:43:03;;;;;;;5.82;3.10;;;;;;;24.24;39.30;101933.25;5072094;28;20116;-74
2021/05/28 04:45:29;;;;;;;4.80;3.10;;;;;;;24.19;39.50;101935.59;5071390;28;20025;-74
2021/05/28 04:47:55;;;;;;;8.55;3.97;;;;;;;24.17;39.78;101932.34;5072288;28;20032;-75
2021/05/28 04:50:30;;;;;;;8.10;3.80;;;;;;;24.14;39.87;101942.28;5054250;28;20085;-74
2021/05/28 04:52:56;;;;;;;4.97;2.65;;;;;;;24.26;39.40;101941.28;5072124;28;20064;-74
2021/05/28 04:55:22;;;;;;;9.07;3.65;;;;;;;24.18;39.78;101939.53;5054403;28;20031;-74
2021/05/28 04:57:47;;;;;;;8.25;3.78;;;;;;;24.21;39.51;101939.59;5072361;28;20447;-74
2021/05/28 05:00:14;;;;;;;10.32;4.10;;;;;;;24.16;39.59;101941.91;5072307;28;20086;-73
2021/05/28 05:02:39;;;;;;;7.55;4.05;;;;;;;24.18;39.77;101933.94;5074062;28;20419;-74
2021/05/28 05:05:05;;;;;;;8.15;3.58;;;;;;;24.24;39.54;101947.22;5076389;28;20058;-77
2021/05/28 05:07:31;;;;;;;6.38;3.50;;;;;;;24.25;39.52;101942.44;5074995;28;20071;-74
2021/05/28 05:09:57;;;;;;;5.38;3.30;;;;;;;24.33;39.41;101939.41;5076214;28;20486;-74
2021/05/28 05:12:22;;;;;;;9.20;3.70;;;;;;;24.17;39.93;101938.72;5076255;28;20093;-73
2021/05/28 05:14:48;;;;;;;4.03;2.75;;;;;;;24.25;39.66;101945.22;5075776;28;20498;-74
2021/05/28 05:17:13;;;;;;;6.55;3.20;;;;;;;24.20;39.76;101940.78;5076030;28;20113;-74
2021/05/28 05:19:39;;;;;;;5.88;3.42;;;;;;;24.20;39.85;101946.38;5057733;28;20032;-74
2021/05/28 05:22:05;;;;;;;8.15;3.42;;;;;;;24.33;39.81;101946.97;5076000;28;20142;-75
2021/05/28 05:24:30;;;;;;;7.57;3.75;;;;;;;24.21;40.01;101944.38;5058067;28;20380;-74
2021/05/28 05:26:56;;;;;;;6.32;3.22;;;;;;;24.32;39.93;101951.75;5075924;28;20033;-74
2021/05/28 05:29:22;;;;;;;6.45;3.15;;;;;;;24.32;39.61;101951.75;5075773;28;20049;-74
2021/05/28 05:31:47;;;;;;;8.98;3.50;;;;;;;24.26;39.80;101952.44;5075830;28;20024;-74
2021/05/28 05:34:13;;;;;;;9.48;3.53;;;;;;;24.29;39.95;101960.06;5075781;28;20032;-74
2021/05/28 05:36:40;;;;;;;5.85;3.60;;;;;;;24.31;40.13;101952.09;5075787;28;20382;-74
2021/05/28 05:39:06;;;;;;;6.20;3.67;;;;;;;24.31;40.18;101961.28;5075690;28;20078;-74
2021/05/28 05:41:32;;;;;;;14.35;4.90;;;;;;;24.30;39.96;101962.47;5075684;28;20047;-76
2021/05/28 05:43:58;;;;;;;5.93;3.00;;;;;;;24.42;39.44;101961.47;5057687;28;20475;-74
2021/05/28 05:46:23;;;;;;;8.40;3.88;;;;;;;24.25;40.21;101962.78;5075536;28;20029;-74
2021/05/28 05:48:49;;;;;;;7.40;4.07;;;;;;;24.25;39.96;101968.38;5075521;28;20029;-75
2021/05/28 05:51:14;;;;;;;7.82;4.00;;;;;;;24.32;40.21;101959.28;5075462;28;20043;-74
2021/05/28 05:53:40;;;;;;;5.35;3.10;;;;;;;24.43;39.82;101965.06;5075392;28;20057;-74
2021/05/28 05:56:06;;;;;;;6.53;3.55;;;;;;;24.21;40.16;101975.91;5075350;28;20082;-74
2021/05/28 05:58:31;;;;;;;8.30;3.88;;;;;;;24.25;39.97;101970.34;5075301;28;20017;-73
2021/05/28 06:00:57;;;;;;;7.97;4.25;;;;;;;24.32;40.33;101964.88;5075287;28;20020;-74
2021/05/28 06:03:22;;;;;;;12.38;4.82;;;;;;;24.37;40.15;101966.56;5057607;28;20016;-74
2021/05/28 06:05:48;;;;;;;8.25;4.47;;;;;;;24.60;39.54;101972.88;5057198;28;20048;-74
2021/05/28 06:08:14;;;;;;;7.03;3.78;;;;;;;24.48;40.04;101970.31;5074916;28;20024;-74
2021/05/28 06:10:39;;;;;;;8.43;4.28;;;;;;;24.41;40.29;101970.22;5067269;28;20068;-74
2021/05/28 06:13:07;;;;;;;11.32;4.30;;;;;;;24.58;39.82;101975.25;5069478;28;20060;-76
2021/05/28 06:15:34;;;;;;;8.77;4.10;;;;;;;24.40;40.23;101975.00;5064285;28;20049;-75
2021/05/28 06:18:00;;;;;;;7.05;3.75;;;;;;;24.65;39.84;101975.34;5057424;28;20521;-76
2021/05/28 06:20:27;;;;;;;10.18;4.65;;;;;;;24.69;39.38;101972.59;5061343;28;20036;-74
2021/05/28 06:22:52;;;;;;;7.85;4.05;;;;;;;24.59;40.20;101974.88;5045564;28;20037;-75
2021/05/28 06:25:28;;;;;;;8.40;4.25;;;;;;;24.60;39.86;101984.84;5063240;28;20078;-74
2021/05/28 06:27:53;;;;;;;7.95;3.80;;;;;;;24.74;39.62;101984.25;5063412;28;20123;-74
2021/05/28 06:30:19;;;;;;;8.68;4.07;;;;;;;24.76;39.79;101981.88;5054080;28;20120;-74
2021/05/28 06:32:45;;;;;;;8.13;3.75;;;;;;;24.87;39.94;101985.59;5054704;28;20060;-75
2021/05/28 06:35:11;;;;;;;8.13;3.75;;;;;;;24.83;39.64;101981.16;5054743;28;20038;-74
2021/05/28 06:37:36;;;;;;;10.05;3.28;;;;;;;24.83;39.86;101987.53;5036628;28;20032;-74
2021/05/28 06:40:04;;;;;;;6.30;3.05;;;;;;;24.80;40.00;101982.72;5054372;28;20471;-76
2021/05/28 06:42:29;;;;;;;13.63;4.32;;;;;;;25.01;39.78;101984.94;5036579;28;20386;-74
2021/05/28 06:44:55;;;;;;;6.80;2.83;;;;;;;25.11;39.31;101981.50;5035460;28;20119;-73
2021/05/28 06:47:20;;;;;;;6.93;3.10;;;;;;;25.07;39.78;101993.84;5050251;28;20384;-75
2021/05/28 06:49:46;;;;;;;6.63;3.00;;;;;;;25.09;39.46;101994.25;5051855;28;20519;-74
2021/05/28 06:52:12;;;;;;;8.57;3.63;;;;;;;25.10;39.88;101996.69;5052475;28;20029;-74
2021/05/28 06:54:37;;;;;;;6.10;3.38;;;;;;;25.14;39.83;101993.91;5034215;28;20426;-74
2021/05/28 06:57:03;;;;;;;6.88;2.50;;;;;;;25.21;39.35;101994.00;5052380;28;20082;-75
2021/05/28 06:59:29;;;;;;;10.15;3.50;;;;;;;25.17;39.46;101990.38;5052368;28;20025;-75
2021/05/28 07:01:55;;;;;;;10.05;3.60;;;;;;;25.07;40.19;101989.03;5035156;28;20079;-75
2021/05/28 07:04:21;;;;;;;4.85;2.75;;;;;;;25.08;40.01;101992.66;5036137;28;20028;-75
2021/05/28 07:06:47;;;;;;;12.05;3.50;;;;;;;25.16;39.76;101995.16;5054042;28;20044;-76
2021/05/28 07:09:12;;;;;;;6.45;2.42;;;;;;;25.16;39.78;101991.53;5054114;28;20025;-74
2021/05/28 07:11:38;;;;;;;8.75;3.00;;;;;;;25.08;39.63;101996.25;5035739;28;20029;-74
2021/05/28 07:14:04;;;;;;;4.43;2.42;;;;;;;25.05;39.61;101988.63;5033208;28;20049;-74
2021/05/28 07:16:29;;;;;;;6.45;2.75;;;;;;;25.23;39.57;101988.81;5041253;28;20166;-74
2021/05/28 07:18:55;;;;;;;7.57;2.97;;;;;;;25.21;39.53;101999.59;5053905;28;20426;-75
2021/05/28 07:21:26;;;;;;;5.35;2.65;;;;;;;25.16;39.67;101999.94;5053771;28;20024;-75
2021/05/28 07:23:52;;;;;;;5.32;2.47;;;;;;;25.28;39.24;102004.47;5035911;28;20383;-74
2021/05/28 07:26:18;;;;;;;6.30;2.80;;;;;;;25.05;39.73;102002.63;5053042;28;20029;-74
2021/05/28 07:28:43;;;;;;;8.25;3.50;;;;;;;25.17;39.60;102007.16;5035405;28;20049;-74
2021/05/28 07:31:10;;;;;;;8.25;3.25;;;;;;;25.02;39.75;102006.16;5053194;28;20498;-75
2021/05/28 07:33:36;;;;;;;8.63;3.15;;;;;;;25.03;39.72;102001.38;5049488;28;20021;-75
2021/05/28 07:36:03;;;;;;;4.22;2.70;;;;;;;24.89;39.96;102008.38;5053515;28;20096;-73
2021/05/28 07:38:29;;;;;;;6.40;2.65;;;;;;;24.99;39.54;102009.69;5039907;28;20037;-74
2021/05/28 07:40:54;;;;;;;8.75;3.83;;;;;;;25.00;39.58;102007.69;5036489;28;20037;-74
2021/05/28 07:43:20;;;;;;;6.13;2.83;;;;;;;24.99;39.49;102011.69;5035780;28;20040;-73
2021/05/28 07:45:50;;;;;;;4.88;2.92;;;;;;;25.00;39.69;102008.50;5034507;28;20029;-76
2021/05/28 07:48:17;;;;;;;5.57;3.15;;;;;;;24.75;40.10;102008.19;5035934;28;20025;-74
2021/05/28 07:50:45;;;;;;;4.75;2.95;;;;;;;24.77;40.00;102010.63;5035929;28;20044;-74
2021/05/28 07:53:16;;;;;;;9.52;4.00;;;;;;;24.62;40.20;102012.41;5037341;28;20032;-73
2021/05/28 07:55:42;;;;;;;5.93;2.83;;;;;;;24.77;39.88;102017.00;5036804;28;20074;-73
2021/05/28 07:58:07;;;;;;;7.15;3.47;;;;;;;24.92;39.65;102024.38;5036367;28;20483;-74
2021/05/28 08:00:33;;;;;;;9.05;3.20;;;;;;;24.96;39.64;102015.25;5035765;28;20036;-74
2021/05/28 08:02:59;;;;;;;9.07;3.58;;;;;;;24.97;39.59;102022.47;5038763;28;20502;-74
2021/05/28 08:05:25;;;;;;;5.68;3.17;;;;;;;24.97;39.57;102017.66;5042446;28;20074;-74
2021/05/28 08:07:51;;;;;;;9.10;3.63;;;;;;;24.94;39.57;102014.81;5034438;28;20029;-74
2021/05/28 08:10:16;;;;;;;5.95;2.80;;;;;;;25.05;39.34;102013.00;5034314;28;20032;-74
2021/05/28 08:12:42;;;;;;;10.02;3.42;;;;;;;24.98;39.45;102008.09;5034927;28;20479;-74
2021/05/28 08:15:08;;;;;;;8.25;3.10;;;;;;;24.94;39.51;102021.25;5035167;28;20090;-76
2021/05/28 08:17:33;;;;;;;13.05;3.30;;;;;;;24.92;39.95;102021.59;5033170;28;20439;-74
2021/05/28 08:19:59;;;;;;;5.43;2.50;;;;;;;24.96;39.64;102023.66;5036080;28;20043;-75
2021/05/28 08:22:25;;;;;;;6.78;2.95;;;;;;;24.71;40.09;102024.13;5036349;28;20021;-74
2021/05/28 08:24:50;;;;;;;8.13;2.53;;;;;;;25.03;39.90;102021.78;5035251;28;20036;-74
2021/05/28 08:27:17;;;;;;;7.32;2.75;;;;;;;25.11;39.70;102019.88;5035771;28;20068;-74
2021/05/28 08:29:43;;;;;;;4.60;2.70;;;;;;;25.16;39.50;102017.53;5037860;28;20049;-73
2021/05/28 08:32:09;;;;;;;6.80;2.63;;;;;;;25.15;39.45;102020.69;5039179;28;20035;-74
2021/05/28 08:34:35;;;;;;;6.13;3.30;;;;;;;25.20;39.46;102011.16;5036039;28;20060;-74
2021/05/28 08:37:01;;;;;;;4.70;2.50;;;;;;;25.12;39.40;102013.06;5040406;28;20391;-74
2021/05/28 08:39:26;;;;;;;8.68;2.80;;;;;;;25.01;39.76;102020.50;5052494;28;20643;-74
2021/05/28 08:41:53;;;;;;;11.93;3.60;;;;;;;25.10;39.64;102019.06;5052485;28;20090;-73
2021/05/28 08:44:24;;;;;;;5.78;2.22;;;;;;;25.26;39.65;102015.22;5052394;28;20025;-75
2021/05/28 08:46:54;;;;;;;7.30;3.13;;;;;;;25.24;39.84;102018.41;5052442;28;20020;-77
2021/05/28 08:49:21;;;;;;;6.25;3.38;;;;;;;25.25;39.52;102020.03;5052405;28;20036;-74
2021/05/28 08:51:47;;;;;;;6.05;3.00;;;;;;;25.23;39.89;102024.38;5051218;28;20069;-75
2021/05/28 08:54:13;;;;;;;6.03;2.50;;;;;;;25.29;39.80;102020.06;5033817;28;20063;-73
2021/05/28 08:56:39;;;;;;;7.97;2.63;;;;;;;25.24;39.80;102021.22;5052282;28;20025;-77
2021/05/28 08:59:05;;;;;;;4.85;2.13;;;;;;;25.44;39.18;102022.63;5052204;28;20032;-74
2021/05/28 09:01:32;;;;;;;7.35;3.55;;;;;;;25.43;39.30;102021.00;5052214;28;20029;-74
2021/05/28 09:04:00;;;;;;;7.72;2.28;;;;;;;25.32;39.73;102025.69;5052231;28;20029;-75
2021/05/28 09:06:45;;;;;;;6.78;2.10;;;;;;;25.30;39.72;102022.47;5052208;28;20033;-73
2021/05/28 09:09:17;;;;;;;3.38;2.00;;;;;;;25.53;39.58;102024.28;5052226;28;20029;-76
2021/05/28 09:11:54;;;;;;;8.40;3.22;;;;;;;25.48;39.64;102024.66;5052241;28;20379;-74
2021/05/28 09:14:34;;;;;;;9.07;3.72;;;;;;;25.57;39.46;102025.94;5052211;28;20033;-73
2021/05/28 09:17:01;;;;;;;4.38;2.55;;;;;;;25.44;39.68;102019.81;5052484;28;20429;-75
2021/05/28 09:19:27;;;;;;;8.90;2.58;;;;;;;25.74;38.99;102027.31;5052069;28;20029;-74
2021/05/28 09:21:57;;;;;;;6.32;3.45;;;;;;;25.67;39.05;102027.22;5033164;28;20413;-74
2021/05/28 09:24:30;;;;;;;2.67;2.05;;;;;;;25.96;38.64;102026.31;5030891;28;20387;-73
2021/05/28 09:26:56;;;;;;;5.20;3.03;;;;;;;25.95;38.80;102021.91;5030714;28;20059;-74
2021/05/28 09:29:21;;;;;;;4.28;2.42;;;;;;;25.99;38.94;102025.53;5033147;28;20081;-74
2021/05/28 09:31:47;;;;;;;8.30;2.63;;;;;;;26.12;38.46;102017.63;5071957;28;20027;-73
2021/05/28 09:34:12;;;;;;;6.55;3.33;;;;;;;26.07;39.07;102022.78;5071949;28;20060;-74
2021/05/28 09:36:40;;;;;;;4.32;1.85;;;;;;;26.16;38.66;102024.09;5071946;28;20486;-75
2021/05/28 09:39:12;;;;;;;4.20;2.28;;;;;;;26.16;38.80;102021.28;5072328;28;20466;-74
2021/05/28 09:41:37;;;;;;;5.35;2.15;;;;;;;26.31;38.58;102027.78;5071913;28;20066;-73
2021/05/28 09:44:14;;;;;;;5.63;2.03;;;;;;;26.16;38.96;102023.28;5071947;28;20048;-74
2021/05/28 09:47:01;;;;;;;8.40;1.92;;;;;;;26.47;38.77;102021.91;5071808;28;20090;-73
2021/05/28 09:49:29;;;;;;;5.57;1.58;;;;;;;26.40;38.85;102028.28;5056806;28;20119;-74
2021/05/28 09:52:27;;;;;;;6.10;2.50;;;;;;;26.37;38.34;102025.41;5052009;28;20399;-74
2021/05/28 09:55:09;;;;;;;5.75;2.38;;;;;;;26.55;38.38;102026.34;5006315;28;20045;-74
2021/05/28 09:57:46;;;;;;;6.25;2.00;;;;;;;26.62;38.04;102034.00;5035489;28;20071;-75
2021/05/28 10:00:22;;;;;;;4.68;2.00;;;;;;;26.62;37.92;102028.41;5017730;28;20434;-74
2021/05/28 10:02:49;;;;;;;3.45;1.98;;;;;;;26.49;38.09;102030.72;5017611;28;20044;-74
2021/05/28 10:05:23;;;;;;;3.85;1.50;;;;;;;26.26;38.27;102034.53;5017484;28;20483;-74
2021/05/28 10:07:49;;;;;;;4.20;2.13;;;;;;;26.44;37.79;102039.47;5035181;28;20029;-75
2021/05/28 10:10:16;;;;;;;7.53;2.50;;;;;;;26.50;37.74;102040.72;5035273;28;20029;-74
2021/05/28 10:12:42;;;;;;;4.90;2.45;;;;;;;26.42;38.02;102037.09;5033872;28;20455;-76
2021/05/28 10:15:12;;;;;;;5.95;1.90;;;;;;;26.07;38.21;102046.03;5035189;28;20053;-73
2021/05/28 10:17:38;;;;;;;7.80;2.20;;;;;;;26.23;37.98;102031.75;5046834;28;20060;-74
2021/05/28 10:20:06;;;;;;;8.05;2.42;;;;;;;26.31;37.93;102041.78;5054946;28;20025;-74
2021/05/28 10:22:32;;;;;;;2.78;1.70;;;;;;;26.20;38.16;102044.50;5053306;28;20099;-74
2021/05/28 10:24:58;;;;;;;8.20;2.97;;;;;;;26.28;38.39;102048.16;5054916;28;20025;-76
2021/05/28 10:27:24;;;;;;;2.92;1.77;;;;;;;26.26;38.54;102042.94;5054621;28;20088;-74
2021/05/28 10:29:52;;;;;;;4.40;2.17;;;;;;;26.49;38.39;102039.94;5054802;28;20020;-74
2021/05/28 10:32:18;;;;;;;6.55;2.08;;;;;;;26.54;37.99;102045.16;5054583;28;20131;-75
2021/05/28 10:35:10;;;;;;;4.35;2.45;;;;;;;26.52;38.00;102053.16;5054643;28;20029;-74
2021/05/28 10:37:41;;;;;;;5.32;2.35;;;;;;;26.53;38.22;102043.56;5054609;28;20029;-74
2021/05/28 10:40:30;;;;;;;3.95;2.05;;;;;;;26.44;37.83;102045.88;5054649;28;20037;-76
2021/05/28 10:42:57;;;;;;;7.13;2.05;;;;;;;26.42;38.02;102045.50;5054662;28;20116;-74
2021/05/28 10:46:02;;;;;;;5.57;2.47;;;;;;;26.27;38.70;102046.56;5054284;28;20025;-74
2021/05/28 10:48:37;;;;;;;6.53;3.08;;;;;;;26.57;38.01;102051.19;5052412;28;20124;-73
2021/05/28 10:51:13;;;;;;;7.38;2.88;;;;;;;26.59;38.24;102045.97;5054213;28;20048;-73
2021/05/28 10:53:41;;;;;;;5.95;2.20;;;;;;;26.78;37.89;102049.31;5052714;28;20052;-75
2021/05/28 10:56:13;;;;;;;7.45;2.88;;;;;;;26.91;37.85;102049.78;5054320;28;20045;-76
2021/05/28 10:59:01;;;;;;;4.95;1.88;;;;;;;26.86;37.74;102050.13;5054178;28;20017;-74
2021/05/28 11:01:35;;;;;;;4.18;2.20;;;;;;;26.89;37.86;102052.16;5053507;28;20041;-75
2021/05/28 11:04:09;;;;;;;5.95;1.92;;;;;;;26.97;37.84;102038.97;5054226;28;20017;-73
2021/05/28 11:07:00;;;;;;;4.70;1.90;;;;;;;27.07;37.89;102032.63;5053978;28;20479;-75
2021/05/28 11:09:43;;;;;;;9.40;2.55;;;;;;;27.15;37.69;102044.69;5053973;28;20028;-74
2021/05/28 11:12:12;;;;;;;6.40;2.40;;;;;;;27.38;37.58;102045.16;5053988;28;20064;-74
2021/05/28 11:15:03;;;;;;;6.85;2.22;;;;;;;27.38;37.68;102053.56;5053984;28;20053;-74
2021/05/28 11:17:29;;;;;;;5.65;2.08;;;;;;;27.39;37.45;102052.38;5045648;28;20592;-74
2021/05/28 11:19:57;;;;;;;3.92;2.03;;;;;;;27.55;37.17;102046.38;5053890;28;20017;-74
2021/05/28 11:22:27;;;;;;;2.92;1.58;;;;;;;27.35;37.16;102054.34;5052210;28;20117;-74
2021/05/28 11:24:53;;;;;;;6.30;2.30;;;;;;;27.54;37.12;102054.00;5053795;28;20497;-74